createdAt,value
2016-09-23T00:00:02.700Z,15.6
2016-09-23T00:00:12.695Z,15.6
2016-09-23T00:00:22.693Z,15.5
2016-09-23T00:00:32.686Z,15.5
2016-09-23T00:00:42.681Z,15.6
2016-09-23T00:00:52.675Z,15.5
2016-09-23T00:01:02.671Z,15.6
2016-09-23T00:01:12.667Z,15.6
2016-09-23T00:01:22.662Z,15.5
2016-09-23T00:01:32.656Z,15.5
2016-09-23T00:01:42.651Z,15.5
2016-09-23T00:01:52.645Z,15.5
2016-09-23T00:02:02.642Z,15.5
2016-09-23T00:02:12.636Z,15.5
2016-09-23T00:02:22.632Z,15.5
2016-09-23T00:02:32.627Z,15.5
2016-09-23T00:02:42.620Z,15.5
2016-09-23T00:02:52.615Z,15.5
2016-09-23T00:03:02.613Z,15.6
2016-09-23T00:03:12.606Z,15.5
2016-09-23T00:03:22.602Z,15.5
2016-09-23T00:03:32.597Z,15.6
2016-09-23T00:03:42.591Z,15.5
2016-09-23T00:03:52.591Z,15.6
2016-09-23T00:04:02.582Z,15.6
2016-09-23T00:04:12.577Z,15.5
2016-09-23T00:04:22.572Z,15.4
2016-09-23T00:04:32.566Z,15.5
2016-09-23T00:04:42.562Z,15.5
2016-09-23T00:04:52.556Z,15.5
2016-09-23T00:05:02.552Z,15.5
2016-09-23T00:05:12.547Z,15.5
2016-09-23T00:05:22.542Z,15.5
2016-09-23T00:05:32.540Z,15.5
2016-09-23T00:05:42.531Z,15.4
2016-09-23T00:05:52.526Z,15.4
2016-09-23T00:06:02.521Z,15.4
2016-09-23T00:06:12.515Z,15.4
2016-09-23T00:06:22.510Z,15.5
2016-09-23T00:06:32.510Z,15.4
2016-09-23T00:06:42.500Z,15.4
2016-09-23T00:06:52.497Z,15.4
2016-09-23T00:07:02.492Z,15.4
2016-09-23T00:07:12.490Z,15.4
2016-09-23T00:07:22.482Z,15.4
2016-09-23T00:07:32.476Z,15.4
2016-09-23T00:07:42.471Z,15.4
2016-09-23T00:07:52.466Z,15.4
2016-09-23T00:08:02.461Z,15.4
2016-09-23T00:08:12.459Z,15.4
2016-09-23T00:08:22.451Z,15.5
2016-09-23T00:08:32.446Z,15.4
2016-09-23T00:08:42.442Z,15.4
2016-09-23T00:08:52.436Z,15.4
2016-09-23T00:09:02.432Z,15.4
2016-09-23T00:09:12.426Z,15.4
2016-09-23T00:09:22.422Z,15.4
2016-09-23T00:09:32.416Z,15.4
2016-09-23T00:09:42.412Z,15.4
2016-09-23T00:09:52.406Z,15.4
2016-09-23T00:10:02.402Z,15.4
2016-09-23T00:10:12.396Z,15.4
2016-09-23T00:10:22.392Z,15.4
2016-09-23T00:10:32.387Z,15.4
2016-09-23T00:10:42.381Z,15.4
2016-09-23T00:10:52.376Z,15.4
2016-09-23T00:11:02.372Z,15.4
2016-09-23T00:11:12.367Z,15.4
2016-09-23T00:11:22.360Z,15.4
2016-09-23T00:11:32.356Z,15.5
2016-09-23T00:11:42.349Z,15.4
2016-09-23T00:11:52.345Z,15.4
2016-09-23T00:12:02.340Z,15.4
2016-09-23T00:12:12.337Z,15.4
2016-09-23T00:12:22.333Z,15.4
2016-09-23T00:12:32.327Z,15.4
2016-09-23T00:12:42.322Z,15.4
2016-09-23T00:12:52.316Z,15.3
2016-09-23T00:13:02.312Z,15.4
2016-09-23T00:13:12.307Z,15.3
2016-09-23T00:13:22.301Z,15.4
2016-09-23T00:13:32.295Z,15.3
2016-09-23T00:13:42.291Z,15.3
2016-09-23T00:13:52.292Z,15.3
2016-09-23T00:14:02.281Z,15.3
2016-09-23T00:14:12.276Z,15.3
2016-09-23T00:14:22.271Z,15.3
2016-09-23T00:14:32.268Z,15.3
2016-09-23T00:14:42.261Z,15.3
2016-09-23T00:14:52.256Z,15.3
2016-09-23T00:15:02.251Z,15.3
2016-09-23T00:15:12.245Z,15.4
2016-09-23T00:15:22.241Z,15.3
2016-09-23T00:15:32.236Z,15.3
2016-09-23T00:15:42.232Z,15.3
2016-09-23T00:15:52.228Z,15.3
2016-09-23T00:16:02.221Z,15.3
2016-09-23T00:16:12.216Z,15.3
2016-09-23T00:16:22.212Z,15.3
2016-09-23T00:16:32.206Z,15.3
2016-09-23T00:16:42.200Z,15.3
2016-09-23T00:16:52.195Z,15.3
2016-09-23T00:17:02.191Z,15.4
2016-09-23T00:17:12.186Z,15.3
2016-09-23T00:17:22.181Z,15.3
2016-09-23T00:17:32.176Z,15.3
2016-09-23T00:17:42.172Z,15.4
2016-09-23T00:17:52.166Z,15.3
2016-09-23T00:18:02.162Z,15.4
2016-09-23T00:18:12.156Z,15.3
2016-09-23T00:18:22.151Z,15.3
2016-09-23T00:18:32.146Z,15.4
2016-09-23T00:18:42.141Z,15.3
2016-09-23T00:18:52.136Z,15.3
2016-09-23T00:19:02.131Z,15.3
2016-09-23T00:19:12.127Z,15.3
2016-09-23T00:19:22.122Z,15.3
2016-09-23T00:19:32.115Z,15.3
2016-09-23T00:19:42.110Z,15.3
2016-09-23T00:19:52.110Z,15.3
2016-09-23T00:20:02.100Z,15.3
2016-09-23T00:20:12.096Z,15.3
2016-09-23T00:20:22.092Z,15.3
2016-09-23T00:20:32.085Z,15.2
2016-09-23T00:20:42.081Z,15.3
2016-09-23T00:20:52.076Z,15.3
2016-09-23T00:21:02.073Z,15.3
2016-09-23T00:21:12.066Z,15.2
2016-09-23T00:21:22.061Z,15.2
2016-09-23T00:21:32.056Z,15.3
2016-09-23T00:21:42.051Z,15.3
2016-09-23T00:21:52.045Z,15.3
2016-09-23T00:22:02.040Z,15.3
2016-09-23T00:22:12.035Z,15.3
2016-09-23T00:22:22.029Z,15.3
2016-09-23T00:22:32.026Z,15.3
2016-09-23T00:22:42.019Z,15.3
2016-09-23T00:22:52.016Z,15.3
2016-09-23T00:23:02.012Z,15.3
2016-09-23T00:23:12.006Z,15.3
2016-09-23T00:23:22.001Z,15.2
2016-09-23T00:23:31.996Z,15.3
2016-09-23T00:23:41.991Z,15.3
2016-09-23T00:23:51.986Z,15.3
2016-09-23T00:24:01.980Z,15.3
2016-09-23T00:24:11.975Z,15.3
2016-09-23T00:24:21.972Z,15.3
2016-09-23T00:24:31.966Z,15.3
2016-09-23T00:24:41.960Z,15.3
2016-09-23T00:24:51.954Z,15.3
2016-09-23T00:25:01.950Z,15.3
2016-09-23T00:25:11.949Z,15.3
2016-09-23T00:25:21.940Z,15.3
2016-09-23T00:25:31.936Z,15.3
2016-09-23T00:25:41.930Z,15.3
2016-09-23T00:25:51.925Z,15.3
2016-09-23T00:26:01.920Z,15.3
2016-09-23T00:26:11.915Z,15.3
2016-09-23T00:26:21.910Z,15.3
2016-09-23T00:26:31.905Z,15.3
2016-09-23T00:26:41.900Z,15.3
2016-09-23T00:26:51.895Z,15.3
2016-09-23T00:27:01.891Z,15.2
2016-09-23T00:27:11.884Z,15.3
2016-09-23T00:27:21.885Z,15.3
2016-09-23T00:27:31.875Z,15.3
2016-09-23T00:27:41.869Z,15.2
2016-09-23T00:27:51.864Z,15.3
2016-09-23T00:28:01.860Z,15.2
2016-09-23T00:28:11.855Z,15.3
2016-09-23T00:28:21.849Z,15.3
2016-09-23T00:28:31.845Z,15.3
2016-09-23T00:28:41.841Z,15.2
2016-09-23T00:28:51.835Z,15.3
2016-09-23T00:29:01.831Z,15.3
2016-09-23T00:29:11.825Z,15.2
2016-09-23T00:29:21.820Z,15.3
2016-09-23T00:29:31.814Z,15.2
2016-09-23T00:29:41.810Z,15.2
2016-09-23T00:29:51.805Z,15.2
2016-09-23T00:30:01.800Z,15.2
2016-09-23T00:30:11.793Z,15.3
2016-09-23T00:30:21.790Z,15.2
2016-09-23T00:30:31.784Z,15.3
2016-09-23T00:30:41.778Z,15.3
2016-09-23T00:30:51.775Z,15.3
2016-09-23T00:31:01.771Z,15.2
2016-09-23T00:31:11.764Z,15.2
2016-09-23T00:31:21.760Z,15.2
2016-09-23T00:31:31.754Z,15.3
2016-09-23T00:31:41.749Z,15.2
2016-09-23T00:31:51.749Z,15.2
2016-09-23T00:32:01.739Z,15.3
2016-09-23T00:32:11.752Z,15.3
2016-09-23T00:32:21.734Z,15.2
2016-09-23T00:32:31.725Z,15.2
2016-09-23T00:32:41.721Z,15.2
2016-09-23T00:32:51.714Z,15.2
2016-09-23T00:33:01.708Z,15.2
2016-09-23T00:33:11.705Z,15.2
2016-09-23T00:33:21.699Z,15.2
2016-09-23T00:33:31.695Z,15.2
2016-09-23T00:33:41.688Z,15.2
2016-09-23T00:33:51.685Z,15.1
2016-09-23T00:34:01.680Z,15.2
2016-09-23T00:34:11.674Z,15.2
2016-09-23T00:34:21.670Z,15.1
2016-09-23T00:34:31.665Z,15.2
2016-09-23T00:34:41.659Z,15.2
2016-09-23T00:34:51.654Z,15.2
2016-09-23T00:35:01.650Z,15.1
2016-09-23T00:35:11.645Z,15.2
2016-09-23T00:35:21.638Z,15.3
2016-09-23T00:35:31.632Z,15.3
2016-09-23T00:35:41.628Z,15.1
2016-09-23T00:35:51.625Z,15.2
2016-09-23T00:36:01.625Z,15.2
2016-09-23T00:36:11.615Z,15.2
2016-09-23T00:36:21.610Z,15.1
2016-09-23T00:36:31.607Z,15.2
2016-09-23T00:36:41.599Z,15.1
2016-09-23T00:36:51.594Z,15.3
2016-09-23T00:37:01.589Z,15.2
2016-09-23T00:37:11.584Z,15.2
2016-09-23T00:37:21.578Z,15.1
2016-09-23T00:37:31.579Z,15.2
2016-09-23T00:37:41.570Z,15.2
2016-09-23T00:37:51.565Z,15.2
2016-09-23T00:38:01.558Z,15.2
2016-09-23T00:38:11.554Z,15.1
2016-09-23T00:38:21.548Z,15.2
2016-09-23T00:38:31.542Z,15.2
2016-09-23T00:38:41.539Z,15.1
2016-09-23T00:38:51.534Z,15.1
2016-09-23T00:39:01.528Z,15.2
2016-09-23T00:39:11.524Z,15.1
2016-09-23T00:39:21.519Z,15.2
2016-09-23T00:39:31.513Z,15.1
2016-09-23T00:39:41.509Z,15.1
2016-09-23T00:39:51.504Z,15.1
2016-09-23T00:40:01.498Z,15
2016-09-23T00:40:11.493Z,15
2016-09-23T00:40:21.488Z,15
2016-09-23T00:40:31.482Z,15
2016-09-23T00:40:41.479Z,15
2016-09-23T00:40:51.482Z,15
2016-09-23T00:41:01.469Z,15.1
2016-09-23T00:41:11.464Z,15
2016-09-23T00:41:21.457Z,15
2016-09-23T00:41:31.454Z,15
2016-09-23T00:41:41.455Z,15.1
2016-09-23T00:41:51.442Z,15.1
2016-09-23T00:42:01.437Z,15
2016-09-23T00:42:11.433Z,15
2016-09-23T00:42:21.428Z,15.1
2016-09-23T00:42:31.423Z,14.9
2016-09-23T00:42:41.417Z,15
2016-09-23T00:42:51.414Z,15
2016-09-23T00:43:01.409Z,15
2016-09-23T00:43:11.403Z,14.9
2016-09-23T00:43:21.398Z,14.9
2016-09-23T00:43:31.392Z,15.1
2016-09-23T00:43:41.386Z,14.9
2016-09-23T00:43:51.383Z,14.9
2016-09-23T00:44:01.378Z,15
2016-09-23T00:44:11.372Z,14.9
2016-09-23T00:44:21.368Z,14.9
2016-09-23T00:44:31.362Z,15
2016-09-23T00:44:41.357Z,15
2016-09-23T00:44:51.353Z,15
2016-09-23T00:45:01.348Z,15
2016-09-23T00:45:11.343Z,14.9
2016-09-23T00:45:21.337Z,15
2016-09-23T00:45:31.332Z,15
2016-09-23T00:45:41.327Z,15
2016-09-23T00:45:51.323Z,15
2016-09-23T00:46:01.318Z,15.1
2016-09-23T00:46:11.311Z,15
2016-09-23T00:46:21.307Z,15
2016-09-23T00:46:31.303Z,15.1
2016-09-23T00:46:41.297Z,15
2016-09-23T00:46:51.292Z,15
2016-09-23T00:47:01.287Z,15
2016-09-23T00:47:11.281Z,15
2016-09-23T00:47:21.277Z,15
2016-09-23T00:47:31.272Z,15
2016-09-23T00:47:41.267Z,15
2016-09-23T00:47:51.263Z,14.9
2016-09-23T00:48:01.258Z,15
2016-09-23T00:48:11.253Z,15
2016-09-23T00:48:21.248Z,15
2016-09-23T00:48:31.242Z,15
2016-09-23T00:48:41.238Z,15.1
2016-09-23T00:48:51.230Z,15.1
2016-09-23T00:49:01.227Z,15
2016-09-23T00:49:11.222Z,15
2016-09-23T00:49:21.216Z,15
2016-09-23T00:49:31.212Z,15
2016-09-23T00:49:41.206Z,15
2016-09-23T00:49:51.202Z,15
2016-09-23T00:50:01.197Z,15.1
2016-09-23T00:50:11.192Z,15
2016-09-23T00:50:21.187Z,15
2016-09-23T00:50:31.183Z,15
2016-09-23T00:50:41.176Z,14.9
2016-09-23T00:50:51.170Z,15
2016-09-23T00:51:01.167Z,15
2016-09-23T00:51:11.161Z,14.9
2016-09-23T00:51:21.156Z,14.9
2016-09-23T00:51:31.151Z,15
2016-09-23T00:51:41.145Z,15
2016-09-23T00:51:51.142Z,15
2016-09-23T00:52:01.136Z,15
2016-09-23T00:52:11.130Z,15
2016-09-23T00:52:21.127Z,14.9
2016-09-23T00:52:31.121Z,15
2016-09-23T00:52:41.116Z,15
2016-09-23T00:52:51.111Z,15
2016-09-23T00:53:01.107Z,15
2016-09-23T00:53:11.101Z,14.9
2016-09-23T00:53:21.096Z,14.9
2016-09-23T00:53:31.089Z,14.9
2016-09-23T00:53:41.087Z,15
2016-09-23T00:53:51.081Z,15
2016-09-23T00:54:01.076Z,15
2016-09-23T00:54:11.069Z,14.9
2016-09-23T00:54:21.064Z,15
2016-09-23T00:54:31.061Z,15
2016-09-23T00:54:41.055Z,14.9
2016-09-23T00:54:51.050Z,15
2016-09-23T00:55:01.045Z,15
2016-09-23T00:55:11.039Z,15
2016-09-23T00:55:21.037Z,14.9
2016-09-23T00:55:31.030Z,14.9
2016-09-23T00:55:41.026Z,15
2016-09-23T00:55:51.021Z,14.9
2016-09-23T00:56:01.016Z,14.9
2016-09-23T00:56:11.010Z,14.9
2016-09-23T00:56:21.005Z,14.9
2016-09-23T00:56:31.000Z,14.9
2016-09-23T00:56:40.994Z,15
2016-09-23T00:56:50.989Z,15
2016-09-23T00:57:00.985Z,14.9
2016-09-23T00:57:10.980Z,14.9
2016-09-23T00:57:20.975Z,15
2016-09-23T00:57:30.969Z,15
2016-09-23T00:57:40.964Z,15
2016-09-23T00:57:50.959Z,15
2016-09-23T00:58:00.954Z,14.9
2016-09-23T00:58:10.949Z,15
2016-09-23T00:58:20.945Z,14.9
2016-09-23T00:58:30.940Z,15
2016-09-23T00:58:40.934Z,15
2016-09-23T00:58:50.930Z,15
2016-09-23T00:59:00.926Z,15
2016-09-23T00:59:10.919Z,15
2016-09-23T00:59:20.915Z,14.9
2016-09-23T00:59:30.908Z,15.1
2016-09-23T00:59:40.917Z,15
2016-09-23T00:59:50.899Z,14.9
2016-09-23T01:00:00.893Z,15
2016-09-23T01:00:10.889Z,14.9
2016-09-23T01:00:20.884Z,14.9
2016-09-23T01:00:30.879Z,14.9
2016-09-23T01:00:40.875Z,14.9
2016-09-23T01:00:50.869Z,14.9
2016-09-23T01:01:00.864Z,14.9
2016-09-23T01:01:10.859Z,14.9
2016-09-23T01:01:20.854Z,14.9
2016-09-23T01:01:30.849Z,14.9
2016-09-23T01:01:40.844Z,14.9
2016-09-23T01:01:50.840Z,15
2016-09-23T01:02:00.834Z,14.9
2016-09-23T01:02:10.828Z,15
2016-09-23T01:02:20.822Z,14.9
2016-09-23T01:02:30.820Z,14.9
2016-09-23T01:02:40.821Z,14.8
2016-09-23T01:02:50.808Z,14.9
2016-09-23T01:03:00.804Z,14.9
2016-09-23T01:03:10.798Z,14.9
2016-09-23T01:03:20.793Z,14.9
2016-09-23T01:03:30.788Z,14.9
2016-09-23T01:03:40.784Z,14.9
2016-09-23T01:03:50.779Z,14.9
2016-09-23T01:04:00.773Z,14.8
2016-09-23T01:04:10.768Z,14.9
2016-09-23T01:04:20.764Z,14.9
2016-09-23T01:04:30.758Z,14.8
2016-09-23T01:04:40.752Z,14.9
2016-09-23T01:04:50.747Z,14.9
2016-09-23T01:05:00.743Z,14.9
2016-09-23T01:05:10.738Z,14.9
2016-09-23T01:05:20.732Z,14.9
2016-09-23T01:05:30.727Z,14.9
2016-09-23T01:05:40.723Z,15
2016-09-23T01:05:50.717Z,14.8
2016-09-23T01:06:00.713Z,14.9
2016-09-23T01:06:10.707Z,14.9
2016-09-23T01:06:20.704Z,14.9
2016-09-23T01:06:30.698Z,14.8
2016-09-23T01:06:40.692Z,14.9
2016-09-23T01:06:50.687Z,14.8
2016-09-23T01:07:00.682Z,14.8
2016-09-23T01:07:10.676Z,14.8
2016-09-23T01:07:20.672Z,14.9
2016-09-23T01:07:30.666Z,14.9
2016-09-23T01:07:40.662Z,14.8
2016-09-23T01:07:50.658Z,14.8
2016-09-23T01:08:00.651Z,14.9
2016-09-23T01:08:10.646Z,14.9
2016-09-23T01:08:20.643Z,14.8
2016-09-23T01:08:30.636Z,14.8
2016-09-23T01:08:40.632Z,14.9
2016-09-23T01:08:50.626Z,14.7
2016-09-23T01:09:00.622Z,14.8
2016-09-23T01:09:10.618Z,14.8
2016-09-23T01:09:20.611Z,14.9
2016-09-23T01:09:30.607Z,14.8
2016-09-23T01:09:40.602Z,14.8
2016-09-23T01:09:50.597Z,14.8
2016-09-23T01:10:00.591Z,14.9
2016-09-23T01:10:10.586Z,14.8
2016-09-23T01:10:20.581Z,14.9
2016-09-23T01:10:30.576Z,14.8
2016-09-23T01:10:40.570Z,14.8
2016-09-23T01:10:50.566Z,14.8
2016-09-23T01:11:00.562Z,14.8
2016-09-23T01:11:10.556Z,14.8
2016-09-23T01:11:20.559Z,14.7
2016-09-23T01:11:30.562Z,14.9
2016-09-23T01:11:40.541Z,14.8
2016-09-23T01:11:50.537Z,14.7
2016-09-23T01:12:00.531Z,14.8
2016-09-23T01:12:10.541Z,14.7
2016-09-23T01:12:20.521Z,14.8
2016-09-23T01:12:30.514Z,14.8
2016-09-23T01:12:40.511Z,14.7
2016-09-23T01:12:50.504Z,14.7
2016-09-23T01:13:00.501Z,14.8
2016-09-23T01:13:10.495Z,14.8
2016-09-23T01:13:20.490Z,14.8
2016-09-23T01:13:30.491Z,14.8
2016-09-23T01:13:40.481Z,14.8
2016-09-23T01:13:50.475Z,14.8
2016-09-23T01:14:00.470Z,14.8
2016-09-23T01:14:10.465Z,14.7
2016-09-23T01:14:20.460Z,14.8
2016-09-23T01:14:30.456Z,14.7
2016-09-23T01:14:40.449Z,14.8
2016-09-23T01:14:50.445Z,14.7
2016-09-23T01:15:00.457Z,14.7
2016-09-23T01:15:10.435Z,14.6
2016-09-23T01:15:20.435Z,14.7
2016-09-23T01:15:30.424Z,14.7
2016-09-23T01:15:40.419Z,14.6
2016-09-23T01:15:50.415Z,14.7
2016-09-23T01:16:00.409Z,14.7
2016-09-23T01:16:10.403Z,14.6
2016-09-23T01:16:20.400Z,14.7
2016-09-23T01:16:30.395Z,14.7
2016-09-23T01:16:40.390Z,14.7
2016-09-23T01:16:50.384Z,14.7
2016-09-23T01:17:00.379Z,14.7
2016-09-23T01:17:10.375Z,14.7
2016-09-23T01:17:20.370Z,14.7
2016-09-23T01:17:30.364Z,14.7
2016-09-23T01:17:40.359Z,14.6
2016-09-23T01:17:50.352Z,14.8
2016-09-23T01:18:00.348Z,14.7
2016-09-23T01:18:10.344Z,14.7
2016-09-23T01:18:20.339Z,14.7
2016-09-23T01:18:30.333Z,14.7
2016-09-23T01:18:40.328Z,14.8
2016-09-23T01:18:50.324Z,14.7
2016-09-23T01:19:00.319Z,14.6
2016-09-23T01:19:10.313Z,14.7
2016-09-23T01:19:20.308Z,14.7
2016-09-23T01:19:30.302Z,14.6
2016-09-23T01:19:40.298Z,14.6
2016-09-23T01:19:50.294Z,14.6
2016-09-23T01:20:00.287Z,14.7
2016-09-23T01:20:10.283Z,14.7
2016-09-23T01:20:20.278Z,14.7
2016-09-23T01:20:30.272Z,14.7
2016-09-23T01:20:40.267Z,14.6
2016-09-23T01:20:50.261Z,14.6
2016-09-23T01:21:00.258Z,14.6
2016-09-23T01:21:10.251Z,14.7
2016-09-23T01:21:20.247Z,14.7
2016-09-23T01:21:30.242Z,14.7
2016-09-23T01:21:40.237Z,14.6
2016-09-23T01:21:50.232Z,14.6
2016-09-23T01:22:00.228Z,14.6
2016-09-23T01:22:10.222Z,14.6
2016-09-23T01:22:20.215Z,14.7
2016-09-23T01:22:30.213Z,14.6
2016-09-23T01:22:40.207Z,14.6
2016-09-23T01:22:50.200Z,14.7
2016-09-23T01:23:00.196Z,14.6
2016-09-23T01:23:10.191Z,14.6
2016-09-23T01:23:20.186Z,14.7
2016-09-23T01:23:30.180Z,14.7
2016-09-23T01:23:40.176Z,14.7
2016-09-23T01:23:50.171Z,14.6
2016-09-23T01:24:00.183Z,14.7
2016-09-23T01:24:10.160Z,14.6
2016-09-23T01:24:20.157Z,14.6
2016-09-23T01:24:30.151Z,14.7
2016-09-23T01:24:40.147Z,14.7
2016-09-23T01:24:50.139Z,14.7
2016-09-23T01:25:00.136Z,14.6
2016-09-23T01:25:10.131Z,14.6
2016-09-23T01:25:20.125Z,14.6
2016-09-23T01:25:30.121Z,14.6
2016-09-23T01:25:40.117Z,14.6
2016-09-23T01:25:50.109Z,14.6
2016-09-23T01:26:00.106Z,14.6
2016-09-23T01:26:10.100Z,14.6
2016-09-23T01:26:20.096Z,14.6
2016-09-23T01:26:30.090Z,14.6
2016-09-23T01:26:40.085Z,14.6
2016-09-23T01:26:50.079Z,14.6
2016-09-23T01:27:00.076Z,14.6
2016-09-23T01:27:10.075Z,14.5
2016-09-23T01:27:20.065Z,14.6
2016-09-23T01:27:30.060Z,14.5
2016-09-23T01:27:40.055Z,14.6
2016-09-23T01:27:50.050Z,14.5
2016-09-23T01:28:00.045Z,14.6
2016-09-23T01:28:10.044Z,14.6
2016-09-23T01:28:20.033Z,14.6
2016-09-23T01:28:30.029Z,14.6
2016-09-23T01:28:40.024Z,14.5
2016-09-23T01:28:50.019Z,14.6
2016-09-23T01:29:00.013Z,14.7
2016-09-23T01:29:10.008Z,14.6
2016-09-23T01:29:20.004Z,14.5
2016-09-23T01:29:29.999Z,14.5
2016-09-23T01:29:39.995Z,14.6
2016-09-23T01:29:49.989Z,14.5
2016-09-23T01:29:59.984Z,14.6
2016-09-23T01:30:09.978Z,14.5
2016-09-23T01:30:19.972Z,14.6
2016-09-23T01:30:29.975Z,14.5
2016-09-23T01:30:39.964Z,14.5
2016-09-23T01:30:49.957Z,14.6
2016-09-23T01:30:59.954Z,14.6
2016-09-23T01:31:09.947Z,14.6
2016-09-23T01:31:19.944Z,14.6
2016-09-23T01:31:29.938Z,14.7
2016-09-23T01:31:39.937Z,14.6
2016-09-23T01:31:49.928Z,14.6
2016-09-23T01:31:59.923Z,14.6
2016-09-23T01:32:09.918Z,14.6
2016-09-23T01:32:19.914Z,14.6
2016-09-23T01:32:29.908Z,14.6
2016-09-23T01:32:39.902Z,14.6
2016-09-23T01:32:49.897Z,14.6
2016-09-23T01:32:59.893Z,14.6
2016-09-23T01:33:09.888Z,14.7
2016-09-23T01:33:19.881Z,14.7
2016-09-23T01:33:29.878Z,14.7
2016-09-23T01:33:39.872Z,14.6
2016-09-23T01:33:49.865Z,14.7
2016-09-23T01:33:59.861Z,14.7
2016-09-23T01:34:09.855Z,14.6
2016-09-23T01:34:19.851Z,14.7
2016-09-23T01:34:29.847Z,14.6
2016-09-23T01:34:39.842Z,14.7
2016-09-23T01:34:49.837Z,14.7
2016-09-23T01:34:59.833Z,14.7
2016-09-23T01:35:09.825Z,14.6
2016-09-23T01:35:19.821Z,14.6
2016-09-23T01:35:29.816Z,14.6
2016-09-23T01:35:39.822Z,14.7
2016-09-23T01:35:49.806Z,14.7
2016-09-23T01:35:59.801Z,14.6
2016-09-23T01:36:09.795Z,14.6
2016-09-23T01:36:19.791Z,14.6
2016-09-23T01:36:29.785Z,14.6
2016-09-23T01:36:39.781Z,14.7
2016-09-23T01:36:49.776Z,14.7
2016-09-23T01:36:59.771Z,14.6
2016-09-23T01:37:09.765Z,14.7
2016-09-23T01:37:19.760Z,14.6
2016-09-23T01:37:29.756Z,14.6
2016-09-23T01:37:39.751Z,14.6
2016-09-23T01:37:49.745Z,14.6
2016-09-23T01:37:59.741Z,14.6
2016-09-23T01:38:09.734Z,14.6
2016-09-23T01:38:19.729Z,14.6
2016-09-23T01:38:29.724Z,14.6
2016-09-23T01:38:39.720Z,14.7
2016-09-23T01:38:49.715Z,14.6
2016-09-23T01:38:59.709Z,14.6
2016-09-23T01:39:09.704Z,14.6
2016-09-23T01:39:19.700Z,14.6
2016-09-23T01:39:29.695Z,14.6
2016-09-23T01:39:39.689Z,14.7
2016-09-23T01:39:49.685Z,14.7
2016-09-23T01:39:59.680Z,14.7
2016-09-23T01:40:09.675Z,14.7
2016-09-23T01:40:19.670Z,14.7
2016-09-23T01:40:29.664Z,14.6
2016-09-23T01:40:39.660Z,14.7
2016-09-23T01:40:49.653Z,14.5
2016-09-23T01:40:59.649Z,14.5
2016-09-23T01:41:09.644Z,14.6
2016-09-23T01:41:19.639Z,14.5
2016-09-23T01:41:29.632Z,14.6
2016-09-23T01:41:39.629Z,14.6
2016-09-23T01:41:49.623Z,14.6
2016-09-23T01:41:59.619Z,14.6
2016-09-23T01:42:09.613Z,14.6
2016-09-23T01:42:19.608Z,14.5
2016-09-23T01:42:29.603Z,14.6
2016-09-23T01:42:39.598Z,14.6
2016-09-23T01:42:49.594Z,14.6
2016-09-23T01:42:59.589Z,14.5
2016-09-23T01:43:09.583Z,14.5
2016-09-23T01:43:19.578Z,14.5
2016-09-23T01:43:29.573Z,14.5
2016-09-23T01:43:39.566Z,14.6
2016-09-23T01:43:49.563Z,14.6
2016-09-23T01:43:59.557Z,14.6
2016-09-23T01:44:09.552Z,14.5
2016-09-23T01:44:19.546Z,14.5
2016-09-23T01:44:29.541Z,14.5
2016-09-23T01:44:39.537Z,14.6
2016-09-23T01:44:49.532Z,14.5
2016-09-23T01:44:59.527Z,14.6
2016-09-23T01:45:09.523Z,14.6
2016-09-23T01:45:19.516Z,14.5
2016-09-23T01:45:29.512Z,14.5
2016-09-23T01:45:39.508Z,14.6
2016-09-23T01:45:49.502Z,14.5
2016-09-23T01:45:59.496Z,14.5
2016-09-23T01:46:09.489Z,14.6
2016-09-23T01:46:19.486Z,14.6
2016-09-23T01:46:29.482Z,14.5
2016-09-23T01:46:39.476Z,14.5
2016-09-23T01:46:49.471Z,14.5
2016-09-23T01:46:59.466Z,14.6
2016-09-23T01:47:09.459Z,14.6
2016-09-23T01:47:19.456Z,14.6
2016-09-23T01:47:29.453Z,14.5
2016-09-23T01:47:39.446Z,14.5
2016-09-23T01:47:49.440Z,14.6
2016-09-23T01:47:59.435Z,14.6
2016-09-23T01:48:09.431Z,14.6
2016-09-23T01:48:19.426Z,14.6
2016-09-23T01:48:29.419Z,14.6
2016-09-23T01:48:39.414Z,14.4
2016-09-23T01:48:49.410Z,14.5
2016-09-23T01:48:59.405Z,14.6
2016-09-23T01:49:09.400Z,14.4
2016-09-23T01:49:19.394Z,14.6
2016-09-23T01:49:29.390Z,14.6
2016-09-23T01:49:39.385Z,14.4
2016-09-23T01:49:49.379Z,14.6
2016-09-23T01:49:59.375Z,14.6
2016-09-23T01:50:09.369Z,14.6
2016-09-23T01:50:19.365Z,14.6
2016-09-23T01:50:29.359Z,14.5
2016-09-23T01:50:39.354Z,14.6
2016-09-23T01:50:49.348Z,14.5
2016-09-23T01:50:59.345Z,14.6
2016-09-23T01:51:09.339Z,14.6
2016-09-23T01:51:19.334Z,14.5
2016-09-23T01:51:29.327Z,14.5
2016-09-23T01:51:39.324Z,14.5
2016-09-23T01:51:49.318Z,14.6
2016-09-23T01:51:59.313Z,14.5
2016-09-23T01:52:09.307Z,14.5
2016-09-23T01:52:19.304Z,14.4
2016-09-23T01:52:29.297Z,14.5
2016-09-23T01:52:39.293Z,14.4
2016-09-23T01:52:49.288Z,14.5
2016-09-23T01:52:59.282Z,14.4
2016-09-23T01:53:09.278Z,14.4
2016-09-23T01:53:19.272Z,14.4
2016-09-23T01:53:29.268Z,14.4
2016-09-23T01:53:39.263Z,14.4
2016-09-23T01:53:49.257Z,14.3
2016-09-23T01:53:59.251Z,14.4
2016-09-23T01:54:09.247Z,14.4
2016-09-23T01:54:19.241Z,14.3
2016-09-23T01:54:29.242Z,14.4
2016-09-23T01:54:39.232Z,14.4
2016-09-23T01:54:49.226Z,14.4
2016-09-23T01:54:59.222Z,14.3
2016-09-23T01:55:09.217Z,14.4
2016-09-23T01:55:19.218Z,14.4
2016-09-23T01:55:29.206Z,14.4
2016-09-23T01:55:39.201Z,14.4
2016-09-23T01:55:49.197Z,14.4
2016-09-23T01:55:59.191Z,14.4
2016-09-23T01:56:09.185Z,14.4
2016-09-23T01:56:19.181Z,14.3
2016-09-23T01:56:29.174Z,14.4
2016-09-23T01:56:39.169Z,14.4
2016-09-23T01:56:49.164Z,14.3
2016-09-23T01:56:59.159Z,14.3
2016-09-23T01:57:09.155Z,14.4
2016-09-23T01:57:19.150Z,14.4
2016-09-23T01:57:29.145Z,14.4
2016-09-23T01:57:39.140Z,14.4
2016-09-23T01:57:49.135Z,14.4
2016-09-23T01:57:59.130Z,14.3
2016-09-23T01:58:09.124Z,14.4
2016-09-23T01:58:19.120Z,14.4
2016-09-23T01:58:29.115Z,14.3
2016-09-23T01:58:39.109Z,14.4
2016-09-23T01:58:49.104Z,14.4
2016-09-23T01:58:59.100Z,14.5
2016-09-23T01:59:09.094Z,14.4
2016-09-23T01:59:19.089Z,14.4
2016-09-23T01:59:29.083Z,14.4
2016-09-23T01:59:39.078Z,14.4
2016-09-23T01:59:49.074Z,14.4
2016-09-23T01:59:59.069Z,14.4
2016-09-23T02:00:09.064Z,14.4
2016-09-23T02:00:19.059Z,14.4
2016-09-23T02:00:29.054Z,14.4
2016-09-23T02:00:39.048Z,14.4
2016-09-23T02:00:49.043Z,14.3
2016-09-23T02:00:59.039Z,14.4
2016-09-23T02:01:09.033Z,14.3
2016-09-23T02:01:19.028Z,14.3
2016-09-23T02:01:29.023Z,14.4
2016-09-23T02:01:39.018Z,14.4
2016-09-23T02:01:49.011Z,14.4
2016-09-23T02:01:59.008Z,14.4
2016-09-23T02:02:09.002Z,14.4
2016-09-23T02:02:18.998Z,14.3
2016-09-23T02:02:28.993Z,14.3
2016-09-23T02:02:38.987Z,14.3
2016-09-23T02:02:48.983Z,14.3
2016-09-23T02:02:58.977Z,14.3
2016-09-23T02:03:08.972Z,14.3
2016-09-23T02:03:18.967Z,14.3
2016-09-23T02:03:28.961Z,14.3
2016-09-23T02:03:38.956Z,14.3
2016-09-23T02:03:48.952Z,14.3
2016-09-23T02:03:58.945Z,14.3
2016-09-23T02:04:08.941Z,14.3
2016-09-23T02:04:18.937Z,14.3
2016-09-23T02:04:28.931Z,14.4
2016-09-23T02:04:38.925Z,14.3
2016-09-23T02:04:48.921Z,14.3
2016-09-23T02:04:58.916Z,14.3
2016-09-23T02:05:08.911Z,14.3
2016-09-23T02:05:18.908Z,14.3
2016-09-23T02:05:28.901Z,14.3
2016-09-23T02:05:38.895Z,14.3
2016-09-23T02:05:48.890Z,14.3
2016-09-23T02:05:58.885Z,14.3
2016-09-23T02:06:08.880Z,14.3
2016-09-23T02:06:18.875Z,14.2
2016-09-23T02:06:28.870Z,14.3
2016-09-23T02:06:38.864Z,14.3
2016-09-23T02:06:48.861Z,14.3
2016-09-23T02:06:58.855Z,14.3
2016-09-23T02:07:08.848Z,14.4
2016-09-23T02:07:18.844Z,14.3
2016-09-23T02:07:28.840Z,14.3
2016-09-23T02:07:38.835Z,14.4
2016-09-23T02:07:48.830Z,14.3
2016-09-23T02:07:58.824Z,14.3
2016-09-23T02:08:08.828Z,14.3
2016-09-23T02:08:18.815Z,14.3
2016-09-23T02:08:28.809Z,14.3
2016-09-23T02:08:38.805Z,14.3
2016-09-23T02:08:48.798Z,14.3
2016-09-23T02:08:58.793Z,14.3
2016-09-23T02:09:08.788Z,14.3
2016-09-23T02:09:18.782Z,14.3
2016-09-23T02:09:28.778Z,14.3
2016-09-23T02:09:38.772Z,14.3
2016-09-23T02:09:48.767Z,14.3
2016-09-23T02:09:58.764Z,14.3
2016-09-23T02:10:08.758Z,14.3
2016-09-23T02:10:18.753Z,14.3
2016-09-23T02:10:28.748Z,14.3
2016-09-23T02:10:38.743Z,14.3
2016-09-23T02:10:48.737Z,14.3
2016-09-23T02:10:58.734Z,14.3
2016-09-23T02:11:08.726Z,14.3
2016-09-23T02:11:18.723Z,14.3
2016-09-23T02:11:28.716Z,14.3
2016-09-23T02:11:38.711Z,14.3
2016-09-23T02:11:48.706Z,14.3
2016-09-23T02:11:58.702Z,14.3
2016-09-23T02:12:08.697Z,14.3
2016-09-23T02:12:18.691Z,14.3
2016-09-23T02:12:28.686Z,14.3
2016-09-23T02:12:38.681Z,14.3
2016-09-23T02:12:48.681Z,14.3
2016-09-23T02:12:58.671Z,14.3
2016-09-23T02:13:08.666Z,14.3
2016-09-23T02:13:18.660Z,14.3
2016-09-23T02:13:28.657Z,14.3
2016-09-23T02:13:38.650Z,14.3
2016-09-23T02:13:48.646Z,14.3